createdAt,value
2018-07-20T00:02:00.394Z,99747.31
2018-07-20T00:05:11.720Z,99734.66
2018-07-20T00:08:24.121Z,99735.63
2018-07-20T00:11:37.153Z,99732.84
2018-07-20T00:14:46.670Z,99739.23
2018-07-20T00:17:54.256Z,99726.97
2018-07-20T00:21:03.845Z,99721.30
2018-07-20T00:24:13.562Z,99719.61
2018-07-20T00:27:24.808Z,99640.29
2018-07-20T00:30:34.498Z,99725.19
2018-07-20T00:33:45.099Z,99726.14
2018-07-20T00:36:54.634Z,99718.61
2018-07-20T00:40:04.375Z,99719.41
2018-07-20T00:43:13.811Z,99715.16
2018-07-20T00:46:23.438Z,99711.27
2018-07-20T00:49:33.013Z,99713.05
2018-07-20T00:52:41.520Z,99603.41
2018-07-20T00:55:50.034Z,99702.85
2018-07-20T00:58:59.531Z,99703.39
2018-07-20T01:02:10.012Z,99699.81
2018-07-20T01:05:18.168Z,99702.87
2018-07-20T01:08:27.399Z,99697.97
2018-07-20T01:11:35.834Z,99692.58
2018-07-20T01:14:45.328Z,99683.50
2018-07-20T01:17:54.839Z,99692.04
2018-07-20T01:21:04.695Z,99685.91
2018-07-20T01:24:15.917Z,99689.02
2018-07-20T01:27:25.367Z,99661.17
2018-07-20T01:30:39.280Z,99696.73
2018-07-20T01:33:49.347Z,99702.36
2018-07-20T01:36:58.923Z,99695.21
2018-07-20T01:40:08.371Z,99694.05
2018-07-20T01:43:17.610Z,99693.25
2018-07-20T01:46:28.126Z,99695.67
2018-07-20T01:49:40.430Z,99692.07
2018-07-20T01:52:49.936Z,99692.36
2018-07-20T01:56:08.708Z,99692.48
2018-07-20T01:59:23.855Z,99696.77
2018-07-20T02:02:48.420Z,99694.05
2018-07-20T02:06:02.480Z,99698.69
2018-07-20T02:09:11.737Z,99702.76
2018-07-20T02:12:20.542Z,99695.28
2018-07-20T02:15:33.913Z,99691.88
2018-07-20T02:18:41.337Z,99696.79
2018-07-20T02:21:50.078Z,99696.68
2018-07-20T02:24:28.961Z,99693.23
2018-07-20T02:27:00.790Z,99700.21
2018-07-20T02:29:34.103Z,99695.75
2018-07-20T02:32:05.874Z,99691.42
2018-07-20T02:34:37.826Z,99695.84
2018-07-20T02:37:10.180Z,99688.45
2018-07-20T02:39:42.891Z,99688.92
2018-07-20T02:42:15.044Z,99693.70
2018-07-20T02:44:46.863Z,99687.63
2018-07-20T02:47:19.773Z,99686.45
2018-07-20T02:49:51.785Z,99695.95
2018-07-20T02:52:23.200Z,99700.23
2018-07-20T02:54:54.655Z,99692.46
2018-07-20T02:57:27.237Z,99691.13
2018-07-20T02:59:59.591Z,99688.35
2018-07-20T03:02:30.898Z,99685.41
2018-07-20T03:05:03.134Z,99689.43
2018-07-20T03:07:34.424Z,99685.35
2018-07-20T03:10:06.730Z,99698.88
2018-07-20T03:12:38.284Z,99701.56
2018-07-20T03:15:09.692Z,99690.06
2018-07-20T03:17:41.995Z,99689.39
2018-07-20T03:20:13.380Z,99687.30
2018-07-20T03:22:45.639Z,99692.01
2018-07-20T03:25:17.964Z,99687.70
2018-07-20T03:27:50.312Z,99685.32
2018-07-20T03:30:21.790Z,99686.58
2018-07-20T03:32:53.550Z,99688.50
2018-07-20T03:35:25.129Z,99688.34
2018-07-20T03:37:56.473Z,99684.53
2018-07-20T03:40:27.807Z,99682.60
2018-07-20T03:42:59.107Z,99683.66
2018-07-20T03:45:30.608Z,99685.09
2018-07-20T03:48:02.105Z,99689.00
2018-07-20T03:50:33.519Z,99682.50
2018-07-20T03:53:04.870Z,99685.52
2018-07-20T03:55:36.261Z,99683.00
2018-07-20T03:58:07.521Z,99680.87
2018-07-20T04:00:38.813Z,99679.19
2018-07-20T04:03:10.181Z,99676.77
2018-07-20T04:05:41.567Z,99674.88
2018-07-20T04:08:12.812Z,99670.56
2018-07-20T04:10:45.090Z,99678.68
2018-07-20T04:13:16.829Z,99675.98
2018-07-20T04:15:48.130Z,99671.56
2018-07-20T04:18:20.153Z,99677.11
2018-07-20T04:20:52.441Z,99666.93
2018-07-20T04:23:22.974Z,99671.22
2018-07-20T04:25:54.267Z,99668.67
2018-07-20T04:28:25.690Z,99674.20
2018-07-20T04:30:57.096Z,99664.91
2018-07-20T04:33:28.844Z,99668.88
2018-07-20T04:36:00.164Z,99646.73
2018-07-20T04:38:31.647Z,99667.21
2018-07-20T04:41:03.316Z,99670.90
2018-07-20T04:43:35.162Z,99659.50
2018-07-20T04:46:07.353Z,99667.16
2018-07-20T04:48:38.761Z,99668.66
2018-07-20T04:51:10.220Z,99669.91
2018-07-20T04:53:42.869Z,99664.70
2018-07-20T04:56:14.258Z,99669.11
2018-07-20T04:58:45.709Z,99666.80
2018-07-20T05:01:18.110Z,99668.77
2018-07-20T05:03:50.099Z,99665.55
2018-07-20T05:06:25.502Z,99665.56
2018-07-20T05:08:56.950Z,99666.42
2018-07-20T05:11:28.475Z,99668.92
2018-07-20T05:14:00.740Z,99668.38
2018-07-20T05:16:32.163Z,99665.92
2018-07-20T05:19:03.953Z,99677.67
2018-07-20T05:21:38.383Z,99676.52
2018-07-20T05:24:15.501Z,99676.30
2018-07-20T05:26:51.289Z,99670.88
2018-07-20T05:29:24.921Z,99620.59
2018-07-20T05:32:04.178Z,99659.39
2018-07-20T05:34:39.502Z,99648.17
2018-07-20T05:37:10.884Z,99660.16
2018-07-20T05:39:44.299Z,99655.48
2018-07-20T05:42:16.420Z,99662.82
2018-07-20T05:44:48.489Z,99661.11
2018-07-20T05:47:20.412Z,99655.63
2018-07-20T05:49:52.413Z,99664.80
2018-07-20T05:52:24.850Z,99660.98
2018-07-20T05:54:57.706Z,99663.77
2018-07-20T05:57:29.768Z,99657.55
2018-07-20T06:00:01.340Z,99647.70
2018-07-20T06:02:32.513Z,99662.59
2018-07-20T06:05:04.485Z,99655.85
2018-07-20T06:07:37.890Z,99661.04
2018-07-20T06:10:10.091Z,99652.86
2018-07-20T06:12:42.451Z,99655.72
2018-07-20T06:15:15.994Z,99651.77
2018-07-20T06:17:48.601Z,99653.66
2018-07-20T06:20:20.697Z,99650.64
2018-07-20T06:22:52.722Z,99650.11
2018-07-20T06:25:23.990Z,99648.98
2018-07-20T06:27:56.389Z,99655.75
2018-07-20T06:30:28.201Z,99647.19
2018-07-20T06:33:01.596Z,99653.39
2018-07-20T06:35:33.262Z,99651.20
2018-07-20T06:38:04.732Z,99652.09
2018-07-20T06:40:36.221Z,99637.09
2018-07-20T06:43:09.895Z,99643.73
2018-07-20T06:45:42.316Z,99644.56
2018-07-20T06:48:15.240Z,99644.01
2018-07-20T06:50:47.631Z,99653.38
2018-07-20T06:53:20.944Z,99656.52
2018-07-20T06:55:52.321Z,99657.20
2018-07-20T06:58:24.083Z,99654.55
2018-07-20T07:00:58.509Z,99658.84
2018-07-20T07:03:31.313Z,99653.11
2018-07-20T07:06:02.428Z,99660.42
2018-07-20T07:08:35.659Z,99661.05
2018-07-20T07:11:07.369Z,99662.17
2018-07-20T07:13:41.575Z,99657.15
2018-07-20T07:16:16.029Z,99659.03
2018-07-20T07:18:47.850Z,99662.17
2018-07-20T07:21:21.131Z,99665.10
2018-07-20T07:23:53.342Z,99663.58
2018-07-20T07:26:27.735Z,99663.30
2018-07-20T07:29:11.918Z,99669.55
2018-07-20T07:31:48.347Z,99661.50
2018-07-20T07:34:20.414Z,99663.21
2018-07-20T07:36:52.790Z,99666.73
2018-07-20T07:39:26.073Z,99659.11
2018-07-20T07:41:59.047Z,99667.98
2018-07-20T07:44:30.512Z,99660.30
2018-07-20T07:47:03.376Z,99657.94
2018-07-20T07:49:34.871Z,99659.05
2018-07-20T07:52:09.555Z,99654.68
2018-07-20T07:54:44.278Z,99648.70
2018-07-20T07:57:16.808Z,99654.50
2018-07-20T07:59:51.082Z,99649.88
2018-07-20T08:02:23.317Z,99650.95
2018-07-20T08:04:58.932Z,99647.28
2018-07-20T08:07:33.526Z,99653.80
2018-07-20T08:10:05.691Z,99647.44
2018-07-20T08:12:39.844Z,99651.96
2018-07-20T08:15:13.943Z,99647.89
2018-07-20T08:17:49.851Z,99651.19
2018-07-20T08:20:23.137Z,99646.17
2018-07-20T08:22:57.193Z,99645.27
2018-07-20T08:25:30.561Z,99649.18
2018-07-20T08:28:02.546Z,99647.64
2018-07-20T08:30:36.109Z,99651.37
2018-07-20T08:33:09.551Z,99642.17
2018-07-20T08:35:42.876Z,99632.61
2018-07-20T08:38:15.941Z,99643.97
2018-07-20T08:40:49.509Z,99647.44
2018-07-20T08:43:25.944Z,99641.86
2018-07-20T08:45:58.229Z,99644.95
2018-07-20T08:48:33.659Z,99637.33
2018-07-20T08:51:05.906Z,99636.55
2018-07-20T08:53:40.502Z,99598.92
2018-07-20T08:56:14.252Z,99633.48
2018-07-20T08:58:46.429Z,99642.52
2018-07-20T09:01:17.866Z,99632.94
2018-07-20T09:03:52.081Z,99626.97
2018-07-20T09:06:24.956Z,99628.17
2018-07-20T09:08:59.079Z,99623.48
2018-07-20T09:11:31.990Z,99621.26
2018-07-20T09:14:05.563Z,99619.61
2018-07-20T09:16:39.670Z,99619.50
2018-07-20T09:19:14.002Z,99624.91
2018-07-20T09:21:45.477Z,99624.33
2018-07-20T09:24:18.040Z,99624.88
2018-07-20T09:26:51.603Z,99612.73
2018-07-20T09:29:23.842Z,99616.92
2018-07-20T09:31:56.899Z,99614.39
2018-07-20T09:34:30.984Z,99613.70
2018-07-20T09:37:06.104Z,99595.19
2018-07-20T09:39:38.062Z,99610.03
2018-07-20T09:42:10.454Z,99603.83
2018-07-20T09:44:44.856Z,99606.17
2018-07-20T09:47:17.527Z,99604.55
2018-07-20T09:49:50.944Z,99609.36
2018-07-20T09:52:26.659Z,99611.03
2018-07-20T09:55:00.120Z,99608.77
2018-07-20T09:57:34.433Z,99610.38
2018-07-20T10:00:09.331Z,99604.91
2018-07-20T10:02:46.638Z,99607.53
2018-07-20T10:05:18.791Z,99608.04
2018-07-20T10:07:51.151Z,99604.50
2018-07-20T10:10:23.446Z,99601.05
2018-07-20T10:13:02.473Z,99596.44
2018-07-20T10:15:36.379Z,99597.63
2018-07-20T10:18:08.241Z,99588.72
2018-07-20T10:20:41.027Z,99593.94
2018-07-20T10:23:16.688Z,99597.23
2018-07-20T10:25:49.082Z,99591.55
2018-07-20T10:28:23.422Z,99591.97
2018-07-20T10:30:56.257Z,99590.18
2018-07-20T10:33:28.346Z,99591.09
2018-07-20T10:36:01.041Z,99594.91
2018-07-20T10:38:34.738Z,99587.16
2018-07-20T10:41:10.188Z,99586.38
2018-07-20T10:43:44.070Z,99586.80
2018-07-20T10:46:16.614Z,99581.07
2018-07-20T10:48:50.308Z,99577.01
2018-07-20T10:51:22.605Z,99579.91
2018-07-20T10:53:56.257Z,99561.98
2018-07-20T10:56:27.823Z,99568.56
2018-07-20T10:59:00.575Z,99572.84
2018-07-20T11:01:33.542Z,99497.98
2018-07-20T11:04:08.291Z,99560.24
2018-07-20T11:06:44.027Z,99552.47
2018-07-20T11:09:16.720Z,99556.11
2018-07-20T11:11:51.990Z,99552.23
2018-07-20T11:14:26.634Z,99549.41
2018-07-20T11:17:00.964Z,99543.79
2018-07-20T11:19:37.702Z,99534.27
2018-07-20T11:22:20.075Z,99532.35
2018-07-20T11:25:01.235Z,99535.45
2018-07-20T11:27:39.276Z,99530.20
2018-07-20T11:30:12.212Z,99533.09
2018-07-20T11:32:46.348Z,99530.17
2018-07-20T11:35:21.775Z,99531.84
2018-07-20T11:38:00.205Z,99525.00
2018-07-20T11:40:33.368Z,99520.07
2018-07-20T11:43:06.678Z,99516.22
2018-07-20T11:45:38.386Z,99518.38
2018-07-20T11:48:11.559Z,99516.57
2018-07-20T11:50:44.532Z,99512.39
2018-07-20T11:53:20.091Z,99502.13
2018-07-20T11:55:51.780Z,99505.06
2018-07-20T11:58:23.163Z,99501.38
2018-07-20T12:00:56.533Z,99499.73
2018-07-20T12:03:28.365Z,99496.31
2018-07-20T12:06:04.427Z,99495.21
2018-07-20T12:08:35.964Z,99494.41
2018-07-20T12:11:07.982Z,99493.18
2018-07-20T12:13:39.289Z,99492.59
2018-07-20T12:16:10.398Z,99476.31
2018-07-20T12:18:42.425Z,99475.47
2018-07-20T12:21:14.144Z,99471.48
2018-07-20T12:23:46.482Z,99479.34
2018-07-20T12:26:18.647Z,99470.48
2018-07-20T12:28:50.003Z,99470.48
2018-07-20T12:31:22.148Z,99473.49
2018-07-20T12:33:55.624Z,99458.89
2018-07-20T12:36:28.984Z,99474.36
2018-07-20T12:39:01.356Z,99462.44
2018-07-20T12:41:35.132Z,99434.99
2018-07-20T12:44:10.777Z,99455.27
2018-07-20T12:46:46.792Z,99459.05
2018-07-20T12:49:20.367Z,99466.20
2018-07-20T12:51:53.064Z,99456.70
2018-07-20T12:54:26.800Z,99456.38
2018-07-20T12:56:58.543Z,99449.14
2018-07-20T12:59:30.470Z,99440.12
2018-07-20T13:02:01.429Z,99439.69
2018-07-20T13:04:37.240Z,99443.70
2018-07-20T13:07:13.655Z,99440.23
2018-07-20T13:09:45.308Z,99437.64
2018-07-20T13:12:17.489Z,99437.35
2018-07-20T13:14:48.967Z,99435.72
2018-07-20T13:17:22.287Z,99439.89
2018-07-20T13:19:54.635Z,99427.36
2018-07-20T13:22:27.913Z,99435.80
2018-07-20T13:25:00.734Z,99437.53
2018-07-20T13:27:33.294Z,99428.63
2018-07-20T13:30:10.087Z,99439.66
2018-07-20T13:32:41.332Z,99429.72
2018-07-20T13:35:18.250Z,99428.06
2018-07-20T13:37:50.499Z,99412.30
2018-07-20T13:40:22.452Z,99425.66
2018-07-20T13:42:53.827Z,99416.06
2018-07-20T13:45:27.325Z,99414.81
2018-07-20T13:48:02.116Z,99409.91
2018-07-20T13:50:39.555Z,99399.42
2018-07-20T13:53:12.143Z,99386.70
2018-07-20T13:55:47.044Z,99382.73
2018-07-20T13:58:22.664Z,99378.58
2018-07-20T14:01:00.360Z,99385.72
2018-07-20T14:03:34.803Z,99374.23
2018-07-20T14:06:08.549Z,99374.56
2018-07-20T14:08:52.413Z,99374.52
2018-07-20T14:11:38.707Z,99384.98
2018-07-20T14:14:15.646Z,99371.07
2018-07-20T14:16:48.842Z,99377.12
2018-07-20T14:19:33.887Z,99366.13
2018-07-20T14:22:06.359Z,99366.55
2018-07-20T14:24:40.765Z,99364.46
2018-07-20T14:27:14.611Z,99358.33
2018-07-20T14:29:46.794Z,99357.09
2018-07-20T14:32:21.665Z,99362.58
2018-07-20T14:34:55.785Z,99338.22
2018-07-20T14:37:29.831Z,99372.41
2018-07-20T14:40:02.849Z,99369.22
2018-07-20T14:42:34.147Z,99365.75
2018-07-20T14:45:07.839Z,99366.49
2018-07-20T14:47:40.967Z,99356.34
2018-07-20T14:50:13.108Z,99354.70
2018-07-20T14:52:44.799Z,99356.82
2018-07-20T14:55:15.892Z,99352.08
2018-07-20T14:57:51.765Z,99350.03
2018-07-20T15:00:24.129Z,99350.59
2018-07-20T15:03:01.557Z,99341.29
2018-07-20T15:05:33.444Z,99343.47
2018-07-20T15:08:06.566Z,99328.48
2018-07-20T15:10:38.600Z,99336.26
2018-07-20T15:13:13.198Z,99340.81
2018-07-20T15:15:44.337Z,99330.14
2018-07-20T15:18:19.754Z,99328.79
2018-07-20T15:20:52.897Z,99327.67
2018-07-20T15:23:25.456Z,99320.20
2018-07-20T15:25:59.194Z,99317.75
2018-07-20T15:28:31.934Z,99303.05
2018-07-20T15:31:04.598Z,99321.48
2018-07-20T15:33:35.754Z,99322.61
2018-07-20T15:36:07.872Z,99308.77
2018-07-20T15:38:40.104Z,99309.63
2018-07-20T15:41:11.753Z,99308.98
2018-07-20T15:43:45.479Z,99303.70
2018-07-20T15:46:18.734Z,99304.52
2018-07-20T15:48:51.921Z,99292.97
2018-07-20T15:51:31.580Z,99286.91
2018-07-20T15:53:56.682Z,99283.67
2018-07-20T15:56:28.320Z,99280.69
2018-07-20T15:59:00.713Z,99281.48
2018-07-20T16:01:33.688Z,99277.13
2018-07-20T16:04:07.212Z,99275.03
2018-07-20T16:06:39.293Z,99272.86
2018-07-20T16:09:13.021Z,99277.22
2018-07-20T16:11:44.265Z,99271.81
2018-07-20T16:14:15.696Z,99270.55
2018-07-20T16:16:46.963Z,99268.64
2018-07-20T16:19:18.261Z,99265.02
2018-07-20T16:21:50.491Z,99262.94
2018-07-20T16:24:23.627Z,99261.45
2018-07-20T16:26:55.324Z,99262.47
2018-07-20T16:29:26.516Z,99262.47
2018-07-20T16:31:58.327Z,99261.77
2018-07-20T16:34:30.469Z,99265.17
2018-07-20T16:37:01.664Z,99262.90
2018-07-20T16:39:34.542Z,99257.55
2018-07-20T16:42:06.713Z,99255.82
2018-07-20T16:44:40.487Z,99248.92
2018-07-20T16:47:12.466Z,99240.49
2018-07-20T16:49:44.470Z,99246.83
2018-07-20T16:52:16.317Z,99224.83
2018-07-20T16:54:48.872Z,99166.98
2018-07-20T16:57:20.629Z,99218.78
2018-07-20T16:59:52.393Z,99222.08
2018-07-20T17:02:24.622Z,99217.41
2018-07-20T17:04:57.548Z,99226.63
2018-07-20T17:07:28.899Z,99225.81
2018-07-20T17:10:01.691Z,99222.23
2018-07-20T17:12:33.416Z,99227.98
2018-07-20T17:15:08.512Z,99221.41
2018-07-20T17:17:39.826Z,99227.29
2018-07-20T17:20:12.540Z,99213.86
2018-07-20T17:22:43.701Z,99226.42
2018-07-20T17:25:16.124Z,99227.80
2018-07-20T17:27:49.887Z,99215.65
2018-07-20T17:30:25.826Z,99222.23
2018-07-20T17:33:01.428Z,99221.25
2018-07-20T17:35:34.656Z,99221.84
2018-07-20T17:38:07.192Z,99223.09
2018-07-20T17:40:40.037Z,99233.19
2018-07-20T17:43:11.836Z,99240.13
2018-07-20T17:45:44.631Z,99236.11
2018-07-20T17:48:18.702Z,99223.92
2018-07-20T17:50:50.421Z,99236.41
2018-07-20T17:53:21.518Z,99239.64
2018-07-20T17:55:53.794Z,99239.13
2018-07-20T17:58:26.895Z,99242.88
2018-07-20T18:00:59.449Z,99242.38
2018-07-20T18:03:30.606Z,99232.10
2018-07-20T18:06:02.234Z,99239.56
2018-07-20T18:08:33.404Z,99230.10
2018-07-20T18:11:05.435Z,99228.31
2018-07-20T18:13:38.510Z,99231.19
2018-07-20T18:16:13.854Z,99229.41
2018-07-20T18:18:45.063Z,99222.05
2018-07-20T18:21:17.813Z,99229.98
2018-07-20T18:23:48.861Z,99233.03
2018-07-20T18:26:21.444Z,99235.06
2018-07-20T18:28:52.679Z,99231.53
2018-07-20T18:31:24.112Z,99235.84
2018-07-20T18:33:55.258Z,99228.34
2018-07-20T18:36:26.607Z,99232.55
2018-07-20T18:38:58.769Z,99231.39
2018-07-20T18:41:30.420Z,99231.66
2018-07-20T18:44:02.440Z,99233.91
2018-07-20T18:46:33.942Z,99227.96
2018-07-20T18:49:05.328Z,99233.48
2018-07-20T18:51:38.592Z,99230.31
2018-07-20T18:54:10.614Z,99219.38
2018-07-20T18:56:43.166Z,99220.42
2018-07-20T18:59:16.835Z,99216.39
2018-07-20T19:01:50.257Z,99215.35
2018-07-20T19:04:22.159Z,99215.44
2018-07-20T19:06:55.781Z,99211.75
2018-07-20T19:09:27.859Z,99209.80
2018-07-20T19:12:00.991Z,99219.92
2018-07-20T19:14:34.712Z,99215.48
2018-07-20T19:17:08.504Z,99218.33
2018-07-20T19:19:43.033Z,99213.97
2018-07-20T19:22:15.392Z,99214.52
2018-07-20T19:24:49.131Z,99211.58
2018-07-20T19:27:22.443Z,99229.72
2018-07-20T19:29:56.521Z,99224.69
2018-07-20T19:32:33.733Z,99220.32
2018-07-20T19:35:06.039Z,99224.89
2018-07-20T19:37:38.225Z,99221.89
2018-07-20T19:40:12.681Z,99225.29
2018-07-20T19:42:47.376Z,99230.67
2018-07-20T19:45:20.357Z,99233.58
2018-07-20T19:47:55.506Z,99228.84
2018-07-20T19:50:29.344Z,99232.87
2018-07-20T19:53:03.124Z,99231.80
2018-07-20T19:55:36.027Z,99234.05
2018-07-20T19:58:10.233Z,99228.46
2018-07-20T20:00:42.172Z,99209.52
2018-07-20T20:03:15.177Z,99217.80
2018-07-20T20:05:46.479Z,99220.20
2018-07-20T20:08:18.905Z,99225.31
2018-07-20T20:10:53.217Z,99225.52
2018-07-20T20:13:26.490Z,99210.75
2018-07-20T20:15:57.814Z,99220.66
2018-07-20T20:18:29.323Z,99217.12
2018-07-20T20:21:03.990Z,99208.17
2018-07-20T20:23:37.188Z,99213.33
2018-07-20T20:26:11.223Z,99189.52
2018-07-20T20:28:42.987Z,99215.05
2018-07-20T20:31:13.261Z,99217.47
2018-07-20T20:33:44.935Z,99220.19
2018-07-20T20:36:17.803Z,99209.98
2018-07-20T20:38:48.994Z,99207.28
2018-07-20T20:41:20.769Z,99201.73
2018-07-20T20:44:01.623Z,99201.95
2018-07-20T20:46:36.137Z,99207.72
2018-07-20T20:49:09.037Z,99196.55
2018-07-20T20:51:41.219Z,99204.30
2018-07-20T20:54:11.633Z,99197.78
2018-07-20T20:56:43.844Z,99203.37
2018-07-20T20:59:16.709Z,99208.80
2018-07-20T21:01:49.382Z,99205.12
2018-07-20T21:04:19.633Z,99212.70
2018-07-20T21:06:52.255Z,99202.53
2018-07-20T21:09:23.398Z,99204.31
2018-07-20T21:11:58.140Z,99205.13
2018-07-20T21:14:41.463Z,99208.14
2018-07-20T21:17:16.009Z,99196.45
2018-07-20T21:19:50.590Z,99198.52
2018-07-20T21:22:22.928Z,99206.02
2018-07-20T21:24:53.519Z,99196.27
2018-07-20T21:27:25.650Z,99204.39
2018-07-20T21:30:00.744Z,99199.87
2018-07-20T21:32:31.906Z,99207.94
2018-07-20T21:35:07.607Z,99195.48
2018-07-20T21:37:39.388Z,99193.95
2018-07-20T21:40:09.720Z,99190.45
2018-07-20T21:42:40.054Z,99193.20
2018-07-20T21:45:13.659Z,99190.80
2018-07-20T21:47:46.606Z,99195.70
2018-07-20T21:50:17.302Z,99188.67
2018-07-20T21:52:47.613Z,99194.22
2018-07-20T21:55:20.548Z,99191.09
2018-07-20T21:57:53.434Z,99192.83
2018-07-20T22:00:26.944Z,99195.25
2018-07-20T22:02:59.964Z,99191.02
2018-07-20T22:05:33.665Z,99192.53
2018-07-20T22:08:06.045Z,99197.08
2018-07-20T22:10:36.383Z,99184.83
2018-07-20T22:13:08.073Z,99190.86
2018-07-20T22:15:42.479Z,99191.23
2018-07-20T22:18:16.350Z,99188.82
2018-07-20T22:20:48.097Z,99187.48
2018-07-20T22:23:21.210Z,99189.14
2018-07-20T22:25:55.590Z,99186.44
2018-07-20T22:28:28.731Z,99191.58
2018-07-20T22:31:03.456Z,99192.53
2018-07-20T22:33:36.524Z,99198.19
2018-07-20T22:36:07.778Z,99192.51
2018-07-20T22:38:39.263Z,99195.41
2018-07-20T22:41:10.304Z,99199.91
2018-07-20T22:43:44.459Z,99192.86
2018-07-20T22:46:18.722Z,99202.28
2018-07-20T22:48:50.301Z,99196.09
2018-07-20T22:51:20.727Z,99193.77
2018-07-20T22:53:51.484Z,99189.34
2018-07-20T22:56:25.302Z,99188.69
2018-07-20T22:58:57.463Z,99192.66
2018-07-20T23:01:32.139Z,99180.95
2018-07-20T23:04:11.223Z,99192.06
2018-07-20T23:06:45.252Z,99194.05
2018-07-20T23:09:20.283Z,99169.97
2018-07-20T23:11:55.256Z,99185.07
2018-07-20T23:14:29.384Z,99184.47
2018-07-20T23:17:00.905Z,99183.78
2018-07-20T23:19:34.189Z,99179.73
2018-07-20T23:22:15.624Z,99179.67
2018-07-20T23:24:51.806Z,99181.11
2018-07-20T23:27:26.387Z,99187.49
2018-07-20T23:30:25.558Z,99184.61
2018-07-20T23:32:59.650Z,99186.34
2018-07-20T23:35:31.938Z,99181.80
2018-07-20T23:38:03.204Z,99178.49
2018-07-20T23:40:36.484Z,99166.95
2018-07-20T23:43:14.312Z,99173.08
2018-07-20T23:45:48.225Z,99173.77
2018-07-20T23:48:24.056Z,99176.78
2018-07-20T23:51:00.525Z,99174.37
2018-07-20T23:53:33.065Z,99172.40
2018-07-20T23:56:04.572Z,99163.03
2018-07-20T23:58:42.011Z,99166.02
